createdAt,value
2023-08-14T00:00:16.378Z,996.76
2023-08-14T00:01:16.404Z,996.76
2023-08-14T00:02:16.663Z,996.78
2023-08-14T00:03:16.461Z,996.73
2023-08-14T00:04:16.355Z,996.79
2023-08-14T00:05:16.338Z,996.81
2023-08-14T00:06:16.312Z,996.87
2023-08-14T00:07:16.304Z,996.88
2023-08-14T00:08:16.310Z,996.91
2023-08-14T00:09:16.297Z,996.89
2023-08-14T00:10:16.275Z,996.84
2023-08-14T00:11:16.259Z,996.83
2023-08-14T00:12:16.507Z,996.83
2023-08-14T00:13:16.262Z,996.79
2023-08-14T00:14:16.235Z,996.81
2023-08-14T00:15:16.221Z,996.70
2023-08-14T00:16:16.284Z,996.72
2023-08-14T00:17:16.218Z,996.71
2023-08-14T00:18:16.210Z,996.71
2023-08-14T00:19:16.243Z,996.70
2023-08-14T00:20:16.180Z,996.73
2023-08-14T00:21:16.161Z,996.77
2023-08-14T00:22:16.419Z,996.76
2023-08-14T00:23:16.141Z,996.77
2023-08-14T00:24:16.123Z,996.77
2023-08-14T00:25:16.119Z,996.77
2023-08-14T00:26:16.124Z,996.75
2023-08-14T00:27:16.121Z,996.80
2023-08-14T00:28:16.090Z,996.79
2023-08-14T00:29:16.083Z,996.75
2023-08-14T00:30:16.065Z,996.72
2023-08-14T00:31:16.114Z,996.74
2023-08-14T00:32:16.271Z,996.75
2023-08-14T00:33:16.030Z,996.76
2023-08-14T00:34:16.031Z,996.75
2023-08-14T00:35:16.010Z,996.76
2023-08-14T00:36:16.024Z,996.76
2023-08-14T00:37:16.006Z,996.75
2023-08-14T00:38:15.984Z,996.73
2023-08-14T00:39:15.970Z,996.71
2023-08-14T00:40:16.006Z,996.68
2023-08-14T00:41:15.967Z,996.69
2023-08-14T00:42:16.295Z,996.74
2023-08-14T00:43:15.929Z,996.73
2023-08-14T00:44:15.924Z,996.74
2023-08-14T00:45:16.003Z,996.77
2023-08-14T00:46:15.912Z,996.67
2023-08-14T00:47:15.889Z,996.71
2023-08-14T00:48:15.886Z,996.70
2023-08-14T00:49:15.887Z,996.66
2023-08-14T00:50:15.887Z,996.65
2023-08-14T00:51:15.846Z,996.66
2023-08-14T00:52:16.111Z,996.62
2023-08-14T00:53:15.842Z,996.66
2023-08-14T00:54:15.835Z,996.62
2023-08-14T00:55:15.805Z,996.56
2023-08-14T00:56:15.795Z,996.53
2023-08-14T00:57:15.787Z,996.47
2023-08-14T00:58:15.786Z,996.53
2023-08-14T00:59:15.782Z,996.57
2023-08-14T01:00:15.757Z,996.54
2023-08-14T01:01:15.770Z,996.53
2023-08-14T01:02:16.062Z,996.48
2023-08-14T01:03:15.734Z,996.47
2023-08-14T01:04:15.748Z,996.47
2023-08-14T01:05:15.705Z,996.45
2023-08-14T01:06:15.701Z,996.50
2023-08-14T01:07:15.676Z,996.44
2023-08-14T01:08:15.703Z,996.46
2023-08-14T01:09:15.656Z,996.46
2023-08-14T01:10:15.664Z,996.44
2023-08-14T01:11:15.638Z,996.49
2023-08-14T01:12:15.890Z,996.52
2023-08-14T01:13:15.641Z,996.47
2023-08-14T01:14:15.613Z,996.51
2023-08-14T01:15:15.607Z,996.54
2023-08-14T01:16:15.633Z,996.55
2023-08-14T01:17:15.601Z,996.58
2023-08-14T01:18:15.593Z,996.54
2023-08-14T01:19:15.554Z,996.56
2023-08-14T01:20:15.554Z,996.50
2023-08-14T01:21:15.542Z,996.55
2023-08-14T01:22:15.745Z,996.63
2023-08-14T01:23:15.529Z,996.57
2023-08-14T01:24:15.505Z,996.55
2023-08-14T01:25:15.503Z,996.52
2023-08-14T01:26:15.490Z,996.53
2023-08-14T01:27:15.497Z,996.56
2023-08-14T01:28:15.465Z,996.58
2023-08-14T01:29:15.478Z,996.52
2023-08-14T01:30:15.442Z,996.56
2023-08-14T01:31:15.484Z,996.53
2023-08-14T01:32:15.876Z,996.58
2023-08-14T01:33:15.416Z,996.60
2023-08-14T01:34:15.399Z,996.63
2023-08-14T01:35:15.401Z,996.57
2023-08-14T01:36:15.403Z,996.63
2023-08-14T01:37:15.377Z,996.63
2023-08-14T01:38:15.357Z,996.55
2023-08-14T01:39:15.361Z,996.61
2023-08-14T01:40:15.366Z,996.56
2023-08-14T01:41:15.348Z,996.63
2023-08-14T01:42:15.762Z,996.58
2023-08-14T01:43:15.312Z,996.58
2023-08-14T01:44:15.314Z,996.59
2023-08-14T01:45:15.303Z,996.57
2023-08-14T01:46:15.290Z,996.61
2023-08-14T01:47:15.277Z,996.61
2023-08-14T01:48:15.254Z,996.59
2023-08-14T01:49:15.256Z,996.60
2023-08-14T01:50:15.257Z,996.53
2023-08-14T01:51:15.237Z,996.53
2023-08-14T01:52:15.358Z,996.53
2023-08-14T01:53:15.216Z,996.48
2023-08-14T01:54:15.194Z,996.53
2023-08-14T01:55:15.202Z,996.53
2023-08-14T01:56:15.183Z,996.53
2023-08-14T01:57:15.160Z,996.54
2023-08-14T01:58:15.156Z,996.53
2023-08-14T01:59:15.173Z,996.55
2023-08-14T02:00:15.146Z,996.53
2023-08-14T02:01:15.142Z,996.44
2023-08-14T02:02:15.116Z,996.47
2023-08-14T02:03:15.157Z,996.44
2023-08-14T02:04:15.109Z,996.45
2023-08-14T02:05:15.082Z,996.44
2023-08-14T02:06:15.069Z,996.47
2023-08-14T02:07:15.065Z,996.42
2023-08-14T02:08:15.082Z,996.48
2023-08-14T02:09:15.053Z,996.49
2023-08-14T02:10:15.025Z,996.49
2023-08-14T02:11:15.016Z,996.51
2023-08-14T02:12:15.095Z,996.51
2023-08-14T02:13:15.012Z,996.47
2023-08-14T02:14:14.977Z,996.49
2023-08-14T02:15:14.972Z,996.49
2023-08-14T02:16:15.022Z,996.42
2023-08-14T02:17:14.955Z,996.40
2023-08-14T02:18:14.959Z,996.41
2023-08-14T02:19:14.942Z,996.40
2023-08-14T02:20:14.927Z,996.33
2023-08-14T02:21:14.919Z,996.35
2023-08-14T02:22:14.981Z,996.36
2023-08-14T02:23:14.906Z,996.39
2023-08-14T02:24:14.876Z,996.35
2023-08-14T02:25:14.878Z,996.30
2023-08-14T02:26:14.854Z,996.29
2023-08-14T02:27:14.864Z,996.26
2023-08-14T02:28:14.836Z,996.19
2023-08-14T02:29:14.842Z,996.20
2023-08-14T02:30:14.810Z,996.16
2023-08-14T02:31:14.830Z,996.15
2023-08-14T02:32:14.813Z,996.12
2023-08-14T02:33:14.790Z,996.10
2023-08-14T02:34:14.777Z,996.06
2023-08-14T02:35:14.777Z,996.07
2023-08-14T02:36:14.780Z,995.98
2023-08-14T02:37:14.759Z,996.03
2023-08-14T02:38:14.731Z,996.02
2023-08-14T02:39:14.726Z,996.07
2023-08-14T02:40:14.705Z,996.07
2023-08-14T02:41:14.822Z,996.04
2023-08-14T02:42:14.682Z,996.04
2023-08-14T02:43:14.706Z,996.02
2023-08-14T02:44:14.736Z,996.10
2023-08-14T02:45:14.656Z,996.06
2023-08-14T02:46:14.703Z,996.04
2023-08-14T02:47:14.666Z,996.05
2023-08-14T02:48:14.627Z,996.04
2023-08-14T02:49:14.627Z,996.01
2023-08-14T02:50:14.613Z,996.02
2023-08-14T02:51:14.612Z,996.00
2023-08-14T02:52:14.599Z,995.97
2023-08-14T02:53:14.580Z,995.96
2023-08-14T02:54:14.557Z,995.97
2023-08-14T02:55:14.564Z,995.92
2023-08-14T02:56:14.532Z,995.86
2023-08-14T02:57:14.531Z,995.90
2023-08-14T02:58:14.522Z,995.97
2023-08-14T02:59:14.504Z,995.98
2023-08-14T03:00:14.512Z,996.02
2023-08-14T03:01:14.501Z,996.00
2023-08-14T03:02:14.499Z,996.03
2023-08-14T03:03:14.529Z,996.08
2023-08-14T03:04:14.464Z,996.10
2023-08-14T03:05:14.457Z,996.07
2023-08-14T03:06:14.424Z,996.10
2023-08-14T03:07:14.419Z,996.09
2023-08-14T03:08:14.400Z,996.12
2023-08-14T03:09:14.413Z,996.12
2023-08-14T03:10:14.378Z,996.15
2023-08-14T03:11:14.370Z,996.14
2023-08-14T03:12:14.394Z,996.14
2023-08-14T03:13:14.352Z,996.14
2023-08-14T03:14:14.354Z,996.11
2023-08-14T03:15:14.329Z,996.10
2023-08-14T03:16:14.333Z,996.04
2023-08-14T03:17:14.310Z,996.07
2023-08-14T03:18:14.315Z,996.12
2023-08-14T03:19:14.302Z,996.14
2023-08-14T03:20:14.336Z,996.15
2023-08-14T03:21:14.267Z,996.17
2023-08-14T03:22:14.253Z,996.15
2023-08-14T03:23:14.262Z,996.08
2023-08-14T03:24:14.240Z,996.10
2023-08-14T03:25:14.225Z,996.06
2023-08-14T03:26:14.212Z,996.05
2023-08-14T03:27:14.209Z,996.09
2023-08-14T03:28:14.206Z,996.10
2023-08-14T03:29:14.181Z,996.01
2023-08-14T03:30:14.169Z,996.00
2023-08-14T03:31:14.189Z,996.01
2023-08-14T03:32:14.146Z,995.99
2023-08-14T03:33:14.153Z,996.00
2023-08-14T03:34:14.134Z,996.01
2023-08-14T03:35:14.122Z,995.96
2023-08-14T03:36:14.107Z,995.90
2023-08-14T03:37:14.112Z,995.89
2023-08-14T03:38:14.114Z,995.93
2023-08-14T03:39:14.075Z,995.91
2023-08-14T03:40:14.076Z,995.89
2023-08-14T03:41:14.054Z,995.85
2023-08-14T03:42:14.066Z,995.91
2023-08-14T03:43:14.045Z,995.89
2023-08-14T03:44:14.021Z,995.90
2023-08-14T03:45:14.016Z,995.96
2023-08-14T03:46:14.051Z,995.89
2023-08-14T03:47:14.030Z,995.89
2023-08-14T03:48:13.976Z,995.88
2023-08-14T03:49:13.975Z,995.88
2023-08-14T03:50:13.962Z,995.85
2023-08-14T03:51:13.962Z,995.88
2023-08-14T03:52:13.959Z,995.84
2023-08-14T03:53:13.923Z,995.82
2023-08-14T03:54:13.911Z,995.90
2023-08-14T03:55:13.922Z,995.92
2023-08-14T03:56:13.915Z,995.97
2023-08-14T03:57:13.902Z,995.95
2023-08-14T03:58:13.895Z,995.93
2023-08-14T03:59:13.862Z,995.98
2023-08-14T04:00:13.879Z,996.01
2023-08-14T04:01:13.828Z,995.92
2023-08-14T04:02:13.860Z,995.91
2023-08-14T04:03:13.902Z,995.86
2023-08-14T04:04:13.813Z,995.85
2023-08-14T04:05:13.816Z,995.91
2023-08-14T04:06:13.780Z,995.89
2023-08-14T04:07:13.749Z,995.96
2023-08-14T04:08:13.709Z,995.96
2023-08-14T04:09:13.699Z,995.97
2023-08-14T04:10:13.758Z,995.96
2023-08-14T04:11:13.740Z,995.98
2023-08-14T04:12:13.724Z,995.99
2023-08-14T04:13:13.759Z,995.93
2023-08-14T04:14:13.728Z,995.88
2023-08-14T04:15:13.717Z,995.97
2023-08-14T04:16:13.703Z,995.92
2023-08-14T04:17:13.729Z,995.91
2023-08-14T04:18:13.690Z,995.85
2023-08-14T04:19:13.671Z,995.88
2023-08-14T04:20:13.660Z,995.87
2023-08-14T04:21:13.630Z,995.87
2023-08-14T04:22:13.615Z,995.85
2023-08-14T04:23:13.567Z,995.84
2023-08-14T04:24:13.563Z,995.80
2023-08-14T04:25:13.537Z,995.80
2023-08-14T04:26:13.523Z,995.78
2023-08-14T04:27:13.515Z,995.76
2023-08-14T04:28:13.545Z,995.80
2023-08-14T04:29:13.528Z,995.79
2023-08-14T04:30:13.487Z,995.79
2023-08-14T04:31:13.467Z,995.76
2023-08-14T04:32:13.456Z,995.73
2023-08-14T04:33:13.475Z,995.73
2023-08-14T04:34:13.442Z,995.77
2023-08-14T04:35:13.425Z,995.74
2023-08-14T04:36:13.410Z,995.74
2023-08-14T04:37:13.407Z,995.72
2023-08-14T04:38:13.455Z,995.68
2023-08-14T04:39:13.419Z,995.71
2023-08-14T04:40:13.385Z,995.67
2023-08-14T04:41:13.362Z,995.68
2023-08-14T04:42:13.369Z,995.66
2023-08-14T04:43:13.371Z,995.71
2023-08-14T04:44:13.329Z,995.73
2023-08-14T04:45:13.333Z,995.73
2023-08-14T04:46:13.375Z,995.75
2023-08-14T04:47:13.329Z,995.70
2023-08-14T04:48:13.338Z,995.73
2023-08-14T04:49:13.274Z,995.74
2023-08-14T04:50:13.262Z,995.77
2023-08-14T04:51:13.260Z,995.72
2023-08-14T04:52:13.258Z,995.71
2023-08-14T04:53:13.255Z,995.73
2023-08-14T04:54:13.218Z,995.73
2023-08-14T04:55:13.216Z,995.74
2023-08-14T04:56:13.217Z,995.79
2023-08-14T04:57:13.209Z,995.78
2023-08-14T04:58:13.182Z,995.89
2023-08-14T04:59:13.189Z,995.81
2023-08-14T05:00:13.178Z,995.83
2023-08-14T05:01:13.206Z,995.80
2023-08-14T05:02:13.163Z,995.80
2023-08-14T05:03:13.124Z,995.87
2023-08-14T05:04:13.173Z,995.87
2023-08-14T05:05:13.125Z,995.87
2023-08-14T05:06:13.113Z,995.81
2023-08-14T05:07:13.086Z,995.83
2023-08-14T05:08:13.078Z,995.82
2023-08-14T05:09:25.750Z,995.79
2023-08-14T05:10:14.073Z,995.83
2023-08-14T05:11:13.047Z,995.83
2023-08-14T05:12:13.033Z,995.78
2023-08-14T05:13:13.020Z,995.84
2023-08-14T05:14:13.004Z,995.83
2023-08-14T05:15:13.019Z,995.88
2023-08-14T05:16:13.020Z,995.83
2023-08-14T05:17:12.981Z,995.85
2023-08-14T05:18:12.981Z,995.81
2023-08-14T05:19:13.006Z,995.76
2023-08-14T05:20:12.984Z,995.78
2023-08-14T05:21:12.938Z,995.76
2023-08-14T05:22:12.927Z,995.78
2023-08-14T05:23:12.920Z,995.78
2023-08-14T05:24:12.916Z,995.80
2023-08-14T05:25:12.889Z,995.82
2023-08-14T05:26:12.885Z,995.77
2023-08-14T05:27:12.871Z,995.84
2023-08-14T05:28:12.905Z,995.85
2023-08-14T05:29:12.883Z,995.90
2023-08-14T05:30:12.837Z,995.93
2023-08-14T05:31:12.873Z,995.94
2023-08-14T05:32:12.816Z,995.98
2023-08-14T05:33:12.838Z,996.00
2023-08-14T05:34:12.812Z,995.98
2023-08-14T05:35:12.788Z,995.96
2023-08-14T05:36:12.769Z,995.96
2023-08-14T05:37:12.766Z,996.02
2023-08-14T05:38:12.776Z,996.02
2023-08-14T05:39:12.774Z,996.02
2023-08-14T05:40:12.733Z,996.00
2023-08-14T05:41:12.718Z,995.94
2023-08-14T05:42:12.713Z,995.93
2023-08-14T05:43:12.727Z,995.92
2023-08-14T05:44:12.690Z,995.90
2023-08-14T05:45:12.674Z,995.90
2023-08-14T05:46:12.673Z,995.91
2023-08-14T05:47:12.670Z,995.89
2023-08-14T05:48:12.673Z,995.92
2023-08-14T05:49:12.634Z,995.89
2023-08-14T05:50:12.631Z,995.94
2023-08-14T05:51:12.619Z,995.96
2023-08-14T05:52:12.642Z,996.01
2023-08-14T05:53:12.589Z,995.95
2023-08-14T05:54:12.598Z,995.98
2023-08-14T05:55:12.582Z,995.96
2023-08-14T05:56:12.574Z,995.97
2023-08-14T05:57:12.577Z,995.92
2023-08-14T05:58:12.546Z,995.96
2023-08-14T05:59:12.536Z,995.95
2023-08-14T06:00:12.533Z,995.96
2023-08-14T06:01:12.575Z,995.90
2023-08-14T06:02:12.519Z,995.90
2023-08-14T06:03:12.570Z,995.87
2023-08-14T06:04:12.502Z,995.89
2023-08-14T06:05:12.471Z,995.89
2023-08-14T06:06:12.578Z,995.82
2023-08-14T06:07:12.452Z,995.79
2023-08-14T06:08:12.444Z,995.77
2023-08-14T06:09:12.438Z,995.85
2023-08-14T06:10:12.437Z,995.86
2023-08-14T06:11:12.422Z,995.83
2023-08-14T06:12:12.396Z,995.83
2023-08-14T06:13:12.394Z,995.83
2023-08-14T06:14:12.375Z,995.88
2023-08-14T06:15:12.386Z,995.91
2023-08-14T06:16:12.398Z,995.94
2023-08-14T06:17:12.363Z,995.95
2023-08-14T06:18:12.356Z,995.99
2023-08-14T06:19:12.318Z,995.95
2023-08-14T06:20:12.333Z,995.91
2023-08-14T06:21:12.296Z,995.92
2023-08-14T06:22:12.288Z,995.89
2023-08-14T06:23:12.282Z,995.91
2023-08-14T06:24:12.269Z,995.87
2023-08-14T06:25:12.281Z,995.88
2023-08-14T06:26:12.260Z,995.86
2023-08-14T06:27:12.249Z,995.85
2023-08-14T06:28:12.238Z,995.88
2023-08-14T06:29:12.279Z,995.94
2023-08-14T06:30:12.250Z,995.94
2023-08-14T06:31:12.224Z,995.89
2023-08-14T06:32:12.196Z,995.89
2023-08-14T06:33:12.993Z,995.87
2023-08-14T06:34:12.191Z,995.82
2023-08-14T06:35:12.154Z,995.77
2023-08-14T06:36:12.150Z,995.73
2023-08-14T06:37:12.127Z,995.68
2023-08-14T06:38:13.302Z,995.71
2023-08-14T06:39:12.130Z,995.67
2023-08-14T06:40:12.104Z,995.66
2023-08-14T06:41:12.089Z,995.71
2023-08-14T06:42:12.107Z,995.72
2023-08-14T06:43:12.078Z,995.72
2023-08-14T06:44:12.082Z,995.81
2023-08-14T06:45:12.049Z,995.79
2023-08-14T06:46:12.063Z,995.78
2023-08-14T06:47:12.025Z,995.75
2023-08-14T06:48:12.037Z,995.83
2023-08-14T06:49:12.002Z,995.84
2023-08-14T06:50:11.996Z,995.83
2023-08-14T06:51:11.994Z,995.84
2023-08-14T06:52:12.003Z,995.79
2023-08-14T06:53:11.989Z,995.78
2023-08-14T06:54:12.021Z,995.75
2023-08-14T06:55:11.937Z,995.80
2023-08-14T06:56:11.937Z,995.80
2023-08-14T06:57:11.932Z,995.80
2023-08-14T06:58:11.908Z,995.85
2023-08-14T06:59:11.897Z,995.84
2023-08-14T07:00:11.886Z,995.80
2023-08-14T07:01:11.919Z,995.70
2023-08-14T07:02:11.887Z,995.69
2023-08-14T07:03:11.889Z,995.71
2023-08-14T07:04:11.856Z,995.72
2023-08-14T07:05:12.263Z,995.78
2023-08-14T07:06:11.838Z,995.77
2023-08-14T07:07:11.827Z,995.77
2023-08-14T07:08:11.812Z,995.75
2023-08-14T07:09:11.788Z,995.72
2023-08-14T07:10:11.797Z,995.77
2023-08-14T07:11:11.786Z,995.73
2023-08-14T07:12:11.781Z,995.75
2023-08-14T07:13:11.749Z,995.77
2023-08-14T07:14:11.739Z,995.72
2023-08-14T07:15:11.729Z,995.77
2023-08-14T07:16:11.812Z,995.79
2023-08-14T07:17:11.702Z,995.84
2023-08-14T07:18:11.707Z,995.87
2023-08-14T07:19:11.683Z,995.85
2023-08-14T07:20:11.747Z,995.87
2023-08-14T07:21:11.679Z,995.85
2023-08-14T07:22:11.664Z,995.78
2023-08-14T07:23:11.636Z,995.77
2023-08-14T07:24:11.644Z,995.76
2023-08-14T07:25:11.637Z,995.75
2023-08-14T07:26:11.627Z,995.80
2023-08-14T07:27:11.592Z,995.72
2023-08-14T07:28:11.600Z,995.82
2023-08-14T07:29:11.580Z,995.83
2023-08-14T07:30:11.596Z,995.79
2023-08-14T07:31:11.653Z,995.73
2023-08-14T07:32:11.557Z,995.62
2023-08-14T07:33:11.579Z,995.55
2023-08-14T07:34:11.540Z,995.55
2023-08-14T07:35:11.529Z,995.51
2023-08-14T07:36:11.504Z,995.53
2023-08-14T07:37:11.591Z,995.51
2023-08-14T07:38:11.490Z,995.56
2023-08-14T07:39:11.482Z,995.54
2023-08-14T07:40:11.463Z,995.54
2023-08-14T07:41:11.461Z,995.55
2023-08-14T07:42:11.459Z,995.52
2023-08-14T07:43:11.426Z,995.56
2023-08-14T07:44:11.433Z,995.57
2023-08-14T07:45:11.404Z,995.53
2023-08-14T07:46:11.432Z,995.44
2023-08-14T07:47:11.394Z,995.47
2023-08-14T07:48:11.398Z,995.45
2023-08-14T07:49:11.371Z,995.45
2023-08-14T07:50:11.380Z,995.43
2023-08-14T07:51:11.342Z,995.49
2023-08-14T07:52:11.337Z,995.49
2023-08-14T07:53:11.340Z,995.49
2023-08-14T07:54:11.342Z,995.44
2023-08-14T07:55:11.291Z,995.45
2023-08-14T07:56:11.296Z,995.49
2023-08-14T07:57:11.282Z,995.52
2023-08-14T07:58:11.299Z,995.47
2023-08-14T07:59:11.257Z,995.48
2023-08-14T08:00:11.248Z,995.44
2023-08-14T08:01:11.279Z,995.44
2023-08-14T08:02:11.249Z,995.35
2023-08-14T08:03:11.317Z,995.37
2023-08-14T08:04:11.220Z,995.39
2023-08-14T08:05:11.223Z,995.34
2023-08-14T08:06:11.253Z,995.38
2023-08-14T08:07:11.417Z,995.36
2023-08-14T08:08:11.198Z,995.38
2023-08-14T08:09:11.160Z,995.36
2023-08-14T08:10:11.167Z,995.39
2023-08-14T08:11:11.138Z,995.44
2023-08-14T08:12:11.160Z,995.39
2023-08-14T08:13:11.108Z,995.43
2023-08-14T08:14:11.116Z,995.40
2023-08-14T08:15:11.088Z,995.37
2023-08-14T08:16:11.146Z,995.37
2023-08-14T08:17:11.086Z,995.32
2023-08-14T08:18:11.117Z,995.35
2023-08-14T08:19:11.040Z,995.32
2023-08-14T08:20:11.105Z,995.24
2023-08-14T08:21:11.053Z,995.34
2023-08-14T08:22:11.023Z,995.33
2023-08-14T08:23:11.000Z,995.28
2023-08-14T08:24:11.001Z,995.31
2023-08-14T08:25:10.979Z,995.31
2023-08-14T08:26:10.993Z,995.23
2023-08-14T08:27:10.960Z,995.25
2023-08-14T08:28:10.968Z,995.29
2023-08-14T08:29:10.949Z,995.34
2023-08-14T08:30:10.964Z,995.37
2023-08-14T08:31:11.034Z,995.37
2023-08-14T08:32:10.912Z,995.17
2023-08-14T08:33:10.929Z,995.22
2023-08-14T08:34:10.903Z,995.22
2023-08-14T08:35:10.892Z,995.21
2023-08-14T08:36:10.864Z,995.24
2023-08-14T08:37:10.874Z,995.28
2023-08-14T08:38:10.855Z,995.32
2023-08-14T08:39:10.857Z,995.18
2023-08-14T08:40:10.860Z,995.25
2023-08-14T08:41:10.813Z,995.24
2023-08-14T08:42:10.817Z,995.24
2023-08-14T08:43:10.797Z,995.25
2023-08-14T08:44:10.807Z,995.23
2023-08-14T08:45:10.793Z,995.18
2023-08-14T08:46:10.851Z,995.23
2023-08-14T08:47:10.747Z,995.21
2023-08-14T08:48:10.806Z,995.23
2023-08-14T08:49:10.741Z,995.23
2023-08-14T08:50:10.753Z,995.16
2023-08-14T08:51:10.726Z,995.16
2023-08-14T08:52:10.701Z,995.16
2023-08-14T08:53:10.693Z,995.16
2023-08-14T08:54:10.697Z,995.15
2023-08-14T08:55:10.686Z,995.18
2023-08-14T08:56:10.665Z,995.21
2023-08-14T08:57:10.648Z,995.15
2023-08-14T08:58:10.657Z,995.14
2023-08-14T08:59:10.633Z,995.14
2023-08-14T09:00:10.638Z,995.18
2023-08-14T09:01:10.903Z,995.21
2023-08-14T09:02:10.609Z,995.23
2023-08-14T09:03:10.763Z,995.18
2023-08-14T09:04:10.688Z,995.18
2023-08-14T09:05:10.563Z,995.21
2023-08-14T09:06:10.562Z,995.20
2023-08-14T09:07:10.549Z,995.14
2023-08-14T09:08:10.550Z,995.18
2023-08-14T09:09:10.531Z,995.18
2023-08-14T09:10:10.510Z,995.19
2023-08-14T09:11:10.505Z,995.22
2023-08-14T09:12:10.519Z,995.21
2023-08-14T09:13:10.522Z,995.23
2023-08-14T09:14:10.475Z,995.24
2023-08-14T09:15:10.479Z,995.23
2023-08-14T09:16:10.455Z,995.24
2023-08-14T09:17:10.457Z,995.29
2023-08-14T09:18:10.435Z,995.27
2023-08-14T09:19:10.422Z,995.27
2023-08-14T09:20:19.291Z,995.30
2023-08-14T09:21:11.412Z,995.31
2023-08-14T09:22:10.409Z,995.31
2023-08-14T09:23:10.379Z,995.28
2023-08-14T09:24:10.370Z,995.31
2023-08-14T09:25:10.370Z,995.32
2023-08-14T09:26:10.370Z,995.30
2023-08-14T09:27:10.330Z,995.29
2023-08-14T09:28:10.336Z,995.28
2023-08-14T09:29:12.928Z,995.29
2023-08-14T09:30:10.306Z,995.33
2023-08-14T09:31:10.330Z,995.29
2023-08-14T09:32:10.330Z,995.28
2023-08-14T09:33:10.427Z,995.25
2023-08-14T09:34:10.264Z,995.31
2023-08-14T09:35:10.401Z,995.31
2023-08-14T09:36:10.257Z,995.29
2023-08-14T09:37:10.262Z,995.21
2023-08-14T09:38:10.224Z,995.24
2023-08-14T09:39:10.231Z,995.27
2023-08-14T09:40:10.225Z,995.25
2023-08-14T09:41:10.201Z,995.20
2023-08-14T09:42:10.178Z,995.23
2023-08-14T09:43:10.168Z,995.25
2023-08-14T09:44:10.158Z,995.26
2023-08-14T09:45:10.198Z,995.17
2023-08-14T09:46:10.165Z,995.17
2023-08-14T09:47:10.200Z,995.15
2023-08-14T09:48:10.300Z,995.10
2023-08-14T09:49:10.127Z,995.14
2023-08-14T09:50:10.121Z,995.15
2023-08-14T09:51:10.091Z,995.10
2023-08-14T09:52:10.075Z,995.13
2023-08-14T09:53:10.122Z,995.12
2023-08-14T09:54:10.074Z,995.07
2023-08-14T09:55:11.753Z,995.08
2023-08-14T09:56:10.027Z,995.06
2023-08-14T09:57:10.154Z,995.10
2023-08-14T09:58:10.021Z,995.10
2023-08-14T09:59:10.023Z,995.14
2023-08-14T10:00:10.006Z,995.06
2023-08-14T10:01:10.041Z,995.06
2023-08-14T10:02:10.059Z,995.12
2023-08-14T10:03:10.201Z,995.07
2023-08-14T10:04:09.994Z,995.03
2023-08-14T10:05:09.969Z,995.06
2023-08-14T10:06:10.090Z,995.04
2023-08-14T10:07:09.931Z,995.02
2023-08-14T10:08:09.957Z,994.97
2023-08-14T10:09:09.900Z,995.00
2023-08-14T10:10:09.900Z,995.01
2023-08-14T10:12:09.874Z,995.00
2023-08-14T10:13:09.936Z,994.97
2023-08-14T10:14:09.848Z,994.96
2023-08-14T10:15:09.847Z,994.93
2023-08-14T10:16:09.882Z,994.92
2023-08-14T10:17:09.835Z,994.93
2023-08-14T10:18:09.910Z,994.92
2023-08-14T10:19:09.806Z,994.97
2023-08-14T10:20:09.780Z,994.90
2023-08-14T10:21:09.776Z,994.98
2023-08-14T10:22:09.795Z,994.91
2023-08-14T10:23:09.757Z,994.93
2023-08-14T10:24:09.740Z,994.88
2023-08-14T10:25:09.733Z,994.86
2023-08-14T10:26:09.784Z,994.84
2023-08-14T10:27:09.736Z,994.88
2023-08-14T10:28:09.716Z,994.88
2023-08-14T10:29:09.693Z,994.90
2023-08-14T10:30:09.686Z,994.90
2023-08-14T10:31:09.796Z,994.98
2023-08-14T10:32:09.684Z,994.94
2023-08-14T10:33:09.740Z,994.93
2023-08-14T10:34:09.639Z,994.90
2023-08-14T10:35:09.633Z,994.99
2023-08-14T10:36:09.627Z,994.89
2023-08-14T10:37:09.608Z,994.94
2023-08-14T10:38:11.190Z,994.91
2023-08-14T10:39:09.590Z,994.94
2023-08-14T10:40:09.579Z,994.96
2023-08-14T10:41:09.589Z,994.98
2023-08-14T10:42:09.556Z,994.93
2023-08-14T10:43:09.538Z,994.94
2023-08-14T10:44:09.569Z,994.94
2023-08-14T10:45:09.540Z,994.87
2023-08-14T10:46:09.655Z,994.91
2023-08-14T10:47:09.509Z,994.97
2023-08-14T10:48:09.539Z,994.95
2023-08-14T10:49:09.485Z,994.92
2023-08-14T10:50:09.489Z,994.94
2023-08-14T10:51:09.458Z,994.91
2023-08-14T10:52:09.443Z,994.92
2023-08-14T10:53:09.433Z,994.93
2023-08-14T10:54:09.448Z,994.96
2023-08-14T10:55:09.436Z,995.03
2023-08-14T10:56:09.408Z,995.03
2023-08-14T10:57:09.403Z,995.03
2023-08-14T10:58:09.382Z,994.92
2023-08-14T10:59:09.394Z,994.96
2023-08-14T11:00:09.363Z,994.92
2023-08-14T11:01:09.453Z,994.90
2023-08-14T11:02:09.340Z,994.99
2023-08-14T11:03:09.421Z,994.92
2023-08-14T11:04:09.354Z,994.95
2023-08-14T11:05:09.316Z,994.98
2023-08-14T11:06:09.323Z,994.93
2023-08-14T11:07:09.292Z,994.80
2023-08-14T11:08:09.303Z,994.83
2023-08-14T11:09:09.292Z,994.79
2023-08-14T11:10:09.262Z,994.83
2023-08-14T11:11:09.258Z,994.83
2023-08-14T11:12:09.278Z,994.75
2023-08-14T11:13:09.262Z,994.80
2023-08-14T11:14:09.218Z,994.75
2023-08-14T11:15:09.269Z,994.71
2023-08-14T11:16:09.235Z,994.67
2023-08-14T11:17:09.201Z,994.62
2023-08-14T11:18:09.194Z,994.63
2023-08-14T11:19:09.173Z,994.68
2023-08-14T11:20:09.161Z,994.66
2023-08-14T11:21:28.645Z,994.68
2023-08-14T11:22:10.171Z,994.66
2023-08-14T11:23:09.145Z,994.66
2023-08-14T11:24:09.116Z,994.75
2023-08-14T11:25:09.106Z,994.74
2023-08-14T11:26:09.099Z,994.76
2023-08-14T11:27:09.140Z,994.72
2023-08-14T11:28:09.078Z,994.67
2023-08-14T11:29:09.082Z,994.76
2023-08-14T11:30:15.166Z,994.72
2023-08-14T11:31:10.072Z,994.66
2023-08-14T11:32:09.058Z,994.70
2023-08-14T11:33:09.042Z,994.72
2023-08-14T11:34:09.022Z,994.63
2023-08-14T11:35:09.017Z,994.69
2023-08-14T11:36:11.726Z,994.71
2023-08-14T11:37:10.016Z,994.65
2023-08-14T11:38:09.104Z,994.66
2023-08-14T11:39:08.974Z,994.62
2023-08-14T11:40:08.954Z,994.68
2023-08-14T11:41:08.961Z,994.68
2023-08-14T11:42:09.481Z,994.69
2023-08-14T11:43:09.221Z,994.59
2023-08-14T11:44:08.903Z,994.64
2023-08-14T11:45:08.926Z,994.66
2023-08-14T11:46:08.902Z,994.63
2023-08-14T11:47:08.889Z,994.62
2023-08-14T11:48:08.908Z,994.63
2023-08-14T11:49:10.135Z,994.57
2023-08-14T11:50:08.925Z,994.52
2023-08-14T11:51:08.859Z,994.57
2023-08-14T11:52:08.830Z,994.54
2023-08-14T11:53:08.824Z,994.59
2023-08-14T11:54:08.809Z,994.56
2023-08-14T11:55:08.823Z,994.53
2023-08-14T11:56:08.788Z,994.56
2023-08-14T11:57:08.803Z,994.51
2023-08-14T11:58:08.770Z,994.52
2023-08-14T11:59:08.785Z,994.54
2023-08-14T12:00:08.762Z,994.59
2023-08-14T12:01:08.798Z,994.61
2023-08-14T12:02:08.724Z,994.61
2023-08-14T12:03:08.892Z,994.68
2023-08-14T12:04:08.795Z,994.72
2023-08-14T12:05:08.705Z,994.70
2023-08-14T12:06:08.708Z,994.67
2023-08-14T12:07:08.684Z,994.65
2023-08-14T12:08:08.666Z,994.70
2023-08-14T12:09:08.680Z,994.65
2023-08-14T12:10:08.660Z,994.67
2023-08-14T12:11:08.636Z,994.72
2023-08-14T12:12:08.635Z,994.73
2023-08-14T12:13:08.638Z,994.78
2023-08-14T12:14:08.630Z,994.81
2023-08-14T12:15:08.599Z,994.81
2023-08-14T12:16:11.799Z,994.79
2023-08-14T12:17:13.009Z,994.83
2023-08-14T12:18:09.601Z,994.79
2023-08-14T12:19:08.557Z,994.85
2023-08-14T12:20:08.543Z,994.77
2023-08-14T12:21:08.544Z,994.76
2023-08-14T12:22:08.532Z,994.76
2023-08-14T12:23:08.534Z,994.75
2023-08-14T12:24:08.502Z,994.72
2023-08-14T12:25:08.506Z,994.78
2023-08-14T12:26:08.494Z,994.80
2023-08-14T12:27:08.538Z,994.80
2023-08-14T12:28:09.372Z,994.81
2023-08-14T12:29:08.962Z,994.83